sensor_id;sensor_type;location;lat;lon;timestamp;P1;durP1;ratioP1;P2;durP2;ratioP2
13832;SDS011;6987;19.472;-99.276;2023-08-31T00:01:43;10.20;;;5.13;;
13832;SDS011;6987;19.472;-99.276;2023-08-31T00:04:14;9.32;;;4.65;;
13832;SDS011;6987;19.472;-99.276;2023-08-31T00:06:43;7.88;;;4.25;;
13832;SDS011;6987;19.472;-99.276;2023-08-31T00:09:12;8.30;;;4.60;;
13832;SDS011;6987;19.472;-99.276;2023-08-31T00:11:42;5.85;;;4.20;;
13832;SDS011;6987;19.472;-99.276;2023-08-31T00:14:13;6.03;;;3.90;;
13832;SDS011;6987;19.472;-99.276;2023-08-31T00:16:43;6.47;;;4.22;;
13832;SDS011;6987;19.472;-99.276;2023-08-31T00:19:13;4.38;;;4.00;;
13832;SDS011;6987;19.472;-99.276;2023-08-31T00:21:43;7.80;;;4.25;;
13832;SDS011;6987;19.472;-99.276;2023-08-31T00:24:12;6.30;;;3.75;;
13832;SDS011;6987;19.472;-99.276;2023-08-31T00:26:42;4.78;;;4.15;;
13832;SDS011;6987;19.472;-99.276;2023-08-31T00:29:13;8.13;;;3.90;;
13832;SDS011;6987;19.472;-99.276;2023-08-31T00:31:42;4.40;;;4.03;;
13832;SDS011;6987;19.472;-99.276;2023-08-31T00:34:13;4.70;;;4.25;;
13832;SDS011;6987;19.472;-99.276;2023-08-31T00:36:43;12.73;;;4.43;;
13832;SDS011;6987;19.472;-99.276;2023-08-31T00:39:12;7.63;;;4.10;;
13832;SDS011;6987;19.472;-99.276;2023-08-31T00:41:46;5.72;;;3.95;;
13832;SDS011;6987;19.472;-99.276;2023-08-31T00:44:18;5.93;;;3.78;;
13832;SDS011;6987;19.472;-99.276;2023-08-31T00:46:48;5.10;;;3.97;;
13832;SDS011;6987;19.472;-99.276;2023-08-31T00:49:17;8.05;;;4.43;;
13832;SDS011;6987;19.472;-99.276;2023-08-31T00:51:47;6.53;;;4.03;;
13832;SDS011;6987;19.472;-99.276;2023-08-31T00:54:17;5.95;;;4.30;;
13832;SDS011;6987;19.472;-99.276;2023-08-31T00:56:48;4.25;;;3.58;;
13832;SDS011;6987;19.472;-99.276;2023-08-31T00:59:23;3.90;;;3.50;;
13832;SDS011;6987;19.472;-99.276;2023-08-31T01:01:55;4.82;;;3.90;;
13832;SDS011;6987;19.472;-99.276;2023-08-31T01:04:33;3.85;;;3.53;;
13832;SDS011;6987;19.472;-99.276;2023-08-31T01:07:16;7.15;;;4.05;;
13832;SDS011;6987;19.472;-99.276;2023-08-31T01:09:57;4.45;;;4.05;;
13832;SDS011;6987;19.472;-99.276;2023-08-31T01:12:36;6.82;;;3.45;;
13832;SDS011;6987;19.472;-99.276;2023-08-31T01:15:14;5.03;;;3.90;;
13832;SDS011;6987;19.472;-99.276;2023-08-31T01:17:46;4.78;;;3.90;;
13832;SDS011;6987;19.472;-99.276;2023-08-31T01:20:21;4.28;;;3.80;;
13832;SDS011;6987;19.472;-99.276;2023-08-31T01:22:59;4.45;;;4.05;;
13832;SDS011;6987;19.472;-99.276;2023-08-31T01:25:33;5.05;;;4.60;;
13832;SDS011;6987;19.472;-99.276;2023-08-31T01:28:03;4.60;;;4.20;;
13832;SDS011;6987;19.472;-99.276;2023-08-31T01:30:34;4.05;;;3.65;;
13832;SDS011;6987;19.472;-99.276;2023-08-31T01:33:03;5.35;;;3.95;;
13832;SDS011;6987;19.472;-99.276;2023-08-31T01:35:33;4.35;;;3.92;;
13832;SDS011;6987;19.472;-99.276;2023-08-31T01:38:08;4.60;;;4.20;;
13832;SDS011;6987;19.472;-99.276;2023-08-31T01:40:43;5.93;;;4.57;;
13832;SDS011;6987;19.472;-99.276;2023-08-31T01:43:16;8.20;;;4.28;;
13832;SDS011;6987;19.472;-99.276;2023-08-31T01:45:47;5.20;;;4.80;;
13832;SDS011;6987;19.472;-99.276;2023-08-31T01:48:17;5.55;;;4.47;;
13832;SDS011;6987;19.472;-99.276;2023-08-31T01:50:47;6.30;;;4.65;;
13832;SDS011;6987;19.472;-99.276;2023-08-31T01:53:16;5.10;;;4.60;;
13832;SDS011;6987;19.472;-99.276;2023-08-31T01:55:47;4.82;;;4.43;;
13832;SDS011;6987;19.472;-99.276;2023-08-31T01:58:20;5.72;;;5.25;;
13832;SDS011;6987;19.472;-99.276;2023-08-31T02:00:50;5.60;;;5.07;;
13832;SDS011;6987;19.472;-99.276;2023-08-31T02:03:20;6.20;;;5.13;;
13832;SDS011;6987;19.472;-99.276;2023-08-31T02:05:49;6.07;;;4.80;;
13832;SDS011;6987;19.472;-99.276;2023-08-31T02:08:19;6.70;;;5.55;;
13832;SDS011;6987;19.472;-99.276;2023-08-31T02:10:50;6.05;;;5.32;;
13832;SDS011;6987;19.472;-99.276;2023-08-31T02:13:20;5.72;;;5.20;;
13832;SDS011;6987;19.472;-99.276;2023-08-31T02:15:51;11.13;;;5.38;;
13832;SDS011;6987;19.472;-99.276;2023-08-31T02:18:21;7.88;;;5.53;;
13832;SDS011;6987;19.472;-99.276;2023-08-31T02:20:52;6.75;;;6.15;;
13832;SDS011;6987;19.472;-99.276;2023-08-31T02:23:21;9.43;;;5.72;;
13832;SDS011;6987;19.472;-99.276;2023-08-31T02:25:52;6.50;;;5.63;;
13832;SDS011;6987;19.472;-99.276;2023-08-31T02:28:22;6.85;;;6.03;;
13832;SDS011;6987;19.472;-99.276;2023-08-31T02:30:57;6.25;;;5.47;;
13832;SDS011;6987;19.472;-99.276;2023-08-31T02:33:27;7.47;;;5.78;;
13832;SDS011;6987;19.472;-99.276;2023-08-31T02:35:57;6.22;;;5.78;;
13832;SDS011;6987;19.472;-99.276;2023-08-31T02:38:26;8.50;;;6.30;;
13832;SDS011;6987;19.472;-99.276;2023-08-31T02:40:58;9.25;;;5.70;;
13832;SDS011;6987;19.472;-99.276;2023-08-31T02:43:27;9.52;;;6.70;;
13832;SDS011;6987;19.472;-99.276;2023-08-31T02:46:00;16.63;;;6.82;;
13832;SDS011;6987;19.472;-99.276;2023-08-31T02:48:33;6.57;;;5.93;;
13832;SDS011;6987;19.472;-99.276;2023-08-31T02:51:04;10.50;;;6.15;;
13832;SDS011;6987;19.472;-99.276;2023-08-31T02:53:34;8.68;;;6.10;;
13832;SDS011;6987;19.472;-99.276;2023-08-31T02:56:05;7.03;;;6.38;;
13832;SDS011;6987;19.472;-99.276;2023-08-31T02:58:34;7.70;;;6.63;;
13832;SDS011;6987;19.472;-99.276;2023-08-31T03:01:07;10.65;;;6.40;;
13832;SDS011;6987;19.472;-99.276;2023-08-31T03:03:38;6.55;;;5.93;;
13832;SDS011;6987;19.472;-99.276;2023-08-31T03:06:07;7.05;;;6.18;;
13832;SDS011;6987;19.472;-99.276;2023-08-31T03:08:37;9.07;;;6.55;;
13832;SDS011;6987;19.472;-99.276;2023-08-31T03:11:09;7.13;;;6.43;;
13832;SDS011;6987;19.472;-99.276;2023-08-31T03:13:40;7.15;;;6.45;;
13832;SDS011;6987;19.472;-99.276;2023-08-31T03:16:09;9.65;;;6.80;;
13832;SDS011;6987;19.472;-99.276;2023-08-31T03:18:38;7.43;;;6.72;;
13832;SDS011;6987;19.472;-99.276;2023-08-31T03:21:08;9.52;;;7.95;;
13832;SDS011;6987;19.472;-99.276;2023-08-31T03:23:37;8.20;;;7.40;;
13832;SDS011;6987;19.472;-99.276;2023-08-31T03:26:07;8.05;;;7.30;;
13832;SDS011;6987;19.472;-99.276;2023-08-31T03:28:38;8.10;;;7.32;;
13832;SDS011;6987;19.472;-99.276;2023-08-31T03:31:07;8.90;;;7.90;;
13832;SDS011;6987;19.472;-99.276;2023-08-31T03:33:37;9.18;;;7.05;;
13832;SDS011;6987;19.472;-99.276;2023-08-31T03:36:07;9.20;;;8.00;;
13832;SDS011;6987;19.472;-99.276;2023-08-31T03:38:36;8.90;;;8.07;;
13832;SDS011;6987;19.472;-99.276;2023-08-31T03:41:06;8.18;;;7.53;;
13832;SDS011;6987;19.472;-99.276;2023-08-31T03:43:37;9.18;;;8.05;;
13832;SDS011;6987;19.472;-99.276;2023-08-31T03:46:06;8.68;;;7.85;;
13832;SDS011;6987;19.472;-99.276;2023-08-31T03:48:36;9.05;;;8.20;;
13832;SDS011;6987;19.472;-99.276;2023-08-31T03:51:05;9.48;;;8.55;;
13832;SDS011;6987;19.472;-99.276;2023-08-31T03:53:35;9.13;;;7.75;;
13832;SDS011;6987;19.472;-99.276;2023-08-31T03:56:05;9.18;;;8.30;;
13832;SDS011;6987;19.472;-99.276;2023-08-31T03:58:34;9.65;;;8.65;;
13832;SDS011;6987;19.472;-99.276;2023-08-31T04:01:07;10.00;;;8.93;;
13832;SDS011;6987;19.472;-99.276;2023-08-31T04:03:38;9.52;;;8.52;;
13832;SDS011;6987;19.472;-99.276;2023-08-31T04:06:08;13.40;;;9.10;;
13832;SDS011;6987;19.472;-99.276;2023-08-31T04:08:38;11.15;;;9.18;;
13832;SDS011;6987;19.472;-99.276;2023-08-31T04:11:07;8.70;;;7.82;;
13832;SDS011;6987;19.472;-99.276;2023-08-31T04:13:39;9.23;;;8.40;;
13832;SDS011;6987;19.472;-99.276;2023-08-31T04:16:08;12.73;;;8.98;;
13832;SDS011;6987;19.472;-99.276;2023-08-31T04:18:38;8.85;;;7.93;;
13832;SDS011;6987;19.472;-99.276;2023-08-31T04:21:07;10.75;;;9.68;;
13832;SDS011;6987;19.472;-99.276;2023-08-31T04:23:37;10.40;;;9.43;;
13832;SDS011;6987;19.472;-99.276;2023-08-31T04:26:10;10.48;;;9.48;;
13832;SDS011;6987;19.472;-99.276;2023-08-31T04:28:41;10.10;;;9.18;;
13832;SDS011;6987;19.472;-99.276;2023-08-31T04:31:12;9.88;;;8.98;;
13832;SDS011;6987;19.472;-99.276;2023-08-31T04:33:41;10.60;;;9.60;;
13832;SDS011;6987;19.472;-99.276;2023-08-31T04:36:10;11.80;;;10.45;;
13832;SDS011;6987;19.472;-99.276;2023-08-31T04:38:40;10.45;;;9.20;;
13832;SDS011;6987;19.472;-99.276;2023-08-31T04:41:09;10.93;;;9.82;;
13832;SDS011;6987;19.472;-99.276;2023-08-31T04:43:39;12.68;;;10.68;;
13832;SDS011;6987;19.472;-99.276;2023-08-31T04:46:10;11.50;;;10.30;;
13832;SDS011;6987;19.472;-99.276;2023-08-31T04:48:39;10.70;;;9.60;;
13832;SDS011;6987;19.472;-99.276;2023-08-31T04:51:10;11.60;;;10.35;;
13832;SDS011;6987;19.472;-99.276;2023-08-31T04:53:58;11.30;;;9.95;;
13832;SDS011;6987;19.472;-99.276;2023-08-31T04:56:29;18.92;;;10.23;;
13832;SDS011;6987;19.472;-99.276;2023-08-31T04:59:01;11.00;;;9.70;;
13832;SDS011;6987;19.472;-99.276;2023-08-31T05:01:31;11.45;;;10.27;;
13832;SDS011;6987;19.472;-99.276;2023-08-31T05:04:00;11.25;;;10.20;;
13832;SDS011;6987;19.472;-99.276;2023-08-31T05:06:30;13.63;;;10.57;;
13832;SDS011;6987;19.472;-99.276;2023-08-31T05:08:59;13.43;;;10.40;;
13832;SDS011;6987;19.472;-99.276;2023-08-31T05:11:29;14.07;;;9.85;;
13832;SDS011;6987;19.472;-99.276;2023-08-31T05:13:59;11.35;;;10.25;;
13832;SDS011;6987;19.472;-99.276;2023-08-31T05:16:30;13.02;;;11.63;;
13832;SDS011;6987;19.472;-99.276;2023-08-31T05:19:00;14.60;;;11.65;;
13832;SDS011;6987;19.472;-99.276;2023-08-31T05:21:30;12.40;;;11.18;;
13832;SDS011;6987;19.472;-99.276;2023-08-31T05:23:59;12.25;;;11.13;;
13832;SDS011;6987;19.472;-99.276;2023-08-31T05:26:29;13.88;;;11.73;;
13832;SDS011;6987;19.472;-99.276;2023-08-31T05:28:58;14.07;;;11.20;;
13832;SDS011;6987;19.472;-99.276;2023-08-31T05:31:31;13.93;;;12.20;;
13832;SDS011;6987;19.472;-99.276;2023-08-31T05:34:01;12.70;;;11.40;;
13832;SDS011;6987;19.472;-99.276;2023-08-31T05:36:31;13.52;;;11.23;;
13832;SDS011;6987;19.472;-99.276;2023-08-31T05:39:00;15.43;;;11.75;;
13832;SDS011;6987;19.472;-99.276;2023-08-31T05:41:29;13.25;;;11.13;;
13832;SDS011;6987;19.472;-99.276;2023-08-31T05:44:00;13.98;;;11.48;;
13832;SDS011;6987;19.472;-99.276;2023-08-31T05:46:31;13.43;;;11.10;;
13832;SDS011;6987;19.472;-99.276;2023-08-31T05:49:01;13.57;;;11.57;;
13832;SDS011;6987;19.472;-99.276;2023-08-31T05:51:30;14.35;;;11.55;;
13832;SDS011;6987;19.472;-99.276;2023-08-31T05:54:00;13.68;;;10.50;;
13832;SDS011;6987;19.472;-99.276;2023-08-31T05:56:29;13.00;;;11.70;;
13832;SDS011;6987;19.472;-99.276;2023-08-31T05:58:58;14.98;;;11.63;;
13832;SDS011;6987;19.472;-99.276;2023-08-31T06:01:28;14.13;;;12.63;;
13832;SDS011;6987;19.472;-99.276;2023-08-31T06:04:00;14.35;;;11.18;;
13832;SDS011;6987;19.472;-99.276;2023-08-31T06:06:31;12.88;;;11.35;;
13832;SDS011;6987;19.472;-99.276;2023-08-31T06:09:00;14.60;;;11.18;;
13832;SDS011;6987;19.472;-99.276;2023-08-31T06:11:30;14.20;;;12.70;;
13832;SDS011;6987;19.472;-99.276;2023-08-31T06:14:02;14.27;;;12.80;;
13832;SDS011;6987;19.472;-99.276;2023-08-31T06:16:33;15.05;;;12.68;;
13832;SDS011;6987;19.472;-99.276;2023-08-31T06:19:03;12.98;;;11.77;;
13832;SDS011;6987;19.472;-99.276;2023-08-31T06:21:33;13.52;;;12.07;;
13832;SDS011;6987;19.472;-99.276;2023-08-31T06:24:03;15.70;;;13.02;;
13832;SDS011;6987;19.472;-99.276;2023-08-31T06:26:35;12.00;;;10.80;;
13832;SDS011;6987;19.472;-99.276;2023-08-31T06:29:05;13.93;;;12.15;;
13832;SDS011;6987;19.472;-99.276;2023-08-31T06:31:38;12.18;;;10.23;;
13832;SDS011;6987;19.472;-99.276;2023-08-31T06:34:07;13.20;;;11.80;;
13832;SDS011;6987;19.472;-99.276;2023-08-31T06:36:37;12.88;;;11.68;;
13832;SDS011;6987;19.472;-99.276;2023-08-31T06:39:07;11.93;;;10.73;;
13832;SDS011;6987;19.472;-99.276;2023-08-31T06:41:37;12.35;;;11.15;;
13832;SDS011;6987;19.472;-99.276;2023-08-31T06:44:06;13.05;;;11.15;;
13832;SDS011;6987;19.472;-99.276;2023-08-31T06:46:36;12.98;;;11.27;;
13832;SDS011;6987;19.472;-99.276;2023-08-31T06:49:07;12.32;;;11.10;;
13832;SDS011;6987;19.472;-99.276;2023-08-31T06:51:37;11.68;;;10.57;;
13832;SDS011;6987;19.472;-99.276;2023-08-31T06:54:06;12.15;;;10.82;;
13832;SDS011;6987;19.472;-99.276;2023-08-31T06:56:36;13.18;;;11.70;;
13832;SDS011;6987;19.472;-99.276;2023-08-31T06:59:06;12.40;;;11.25;;
13832;SDS011;6987;19.472;-99.276;2023-08-31T07:01:36;12.00;;;10.90;;
13832;SDS011;6987;19.472;-99.276;2023-08-31T07:04:06;12.82;;;11.50;;
13832;SDS011;6987;19.472;-99.276;2023-08-31T07:06:38;12.20;;;11.00;;
13832;SDS011;6987;19.472;-99.276;2023-08-31T07:09:08;13.20;;;11.88;;
13832;SDS011;6987;19.472;-99.276;2023-08-31T07:11:37;12.88;;;11.45;;
13832;SDS011;6987;19.472;-99.276;2023-08-31T07:14:07;14.05;;;12.63;;
13832;SDS011;6987;19.472;-99.276;2023-08-31T07:16:38;12.85;;;11.63;;
13832;SDS011;6987;19.472;-99.276;2023-08-31T07:19:07;14.52;;;13.13;;
13832;SDS011;6987;19.472;-99.276;2023-08-31T07:21:40;14.40;;;12.30;;
13832;SDS011;6987;19.472;-99.276;2023-08-31T07:24:09;13.30;;;11.90;;
13832;SDS011;6987;19.472;-99.276;2023-08-31T07:26:38;15.05;;;13.10;;
13832;SDS011;6987;19.472;-99.276;2023-08-31T07:29:09;13.00;;;11.70;;
13832;SDS011;6987;19.472;-99.276;2023-08-31T07:31:40;15.18;;;13.27;;
13832;SDS011;6987;19.472;-99.276;2023-08-31T07:34:10;13.00;;;11.70;;
13832;SDS011;6987;19.472;-99.276;2023-08-31T07:36:39;12.98;;;11.50;;
13832;SDS011;6987;19.472;-99.276;2023-08-31T07:39:09;13.55;;;12.25;;
13832;SDS011;6987;19.472;-99.276;2023-08-31T07:41:38;14.98;;;11.48;;
13832;SDS011;6987;19.472;-99.276;2023-08-31T07:44:08;14.35;;;11.65;;
13832;SDS011;6987;19.472;-99.276;2023-08-31T07:46:39;13.00;;;11.63;;
13832;SDS011;6987;19.472;-99.276;2023-08-31T07:49:08;12.55;;;11.35;;
13832;SDS011;6987;19.472;-99.276;2023-08-31T07:51:38;11.82;;;10.70;;
13832;SDS011;6987;19.472;-99.276;2023-08-31T07:54:07;12.93;;;11.70;;
13832;SDS011;6987;19.472;-99.276;2023-08-31T07:56:36;11.82;;;10.65;;
13832;SDS011;6987;19.472;-99.276;2023-08-31T07:59:07;13.40;;;11.68;;
13832;SDS011;6987;19.472;-99.276;2023-08-31T08:01:36;15.18;;;10.30;;
13832;SDS011;6987;19.472;-99.276;2023-08-31T08:04:08;13.05;;;10.65;;
13832;SDS011;6987;19.472;-99.276;2023-08-31T08:06:39;12.18;;;10.90;;
13832;SDS011;6987;19.472;-99.276;2023-08-31T08:09:08;13.20;;;11.90;;
13832;SDS011;6987;19.472;-99.276;2023-08-31T08:11:38;14.50;;;11.20;;
13832;SDS011;6987;19.472;-99.276;2023-08-31T08:14:07;11.52;;;10.52;;
13832;SDS011;6987;19.472;-99.276;2023-08-31T08:16:37;11.73;;;10.60;;
13832;SDS011;6987;19.472;-99.276;2023-08-31T08:19:08;11.55;;;10.40;;
13832;SDS011;6987;19.472;-99.276;2023-08-31T08:21:37;12.23;;;11.00;;
13832;SDS011;6987;19.472;-99.276;2023-08-31T08:24:07;11.65;;;10.55;;
13832;SDS011;6987;19.472;-99.276;2023-08-31T08:26:36;13.32;;;11.00;;
13832;SDS011;6987;19.472;-99.276;2023-08-31T08:29:05;13.07;;;11.77;;
13832;SDS011;6987;19.472;-99.276;2023-08-31T08:31:35;13.35;;;11.48;;
13832;SDS011;6987;19.472;-99.276;2023-08-31T08:34:06;11.85;;;10.68;;
13832;SDS011;6987;19.472;-99.276;2023-08-31T08:36:35;11.48;;;10.35;;
13832;SDS011;6987;19.472;-99.276;2023-08-31T08:39:05;13.07;;;9.85;;
13832;SDS011;6987;19.472;-99.276;2023-08-31T08:41:35;10.45;;;9.35;;
13832;SDS011;6987;19.472;-99.276;2023-08-31T08:44:07;9.57;;;8.70;;
13832;SDS011;6987;19.472;-99.276;2023-08-31T08:46:37;9.32;;;8.43;;
13832;SDS011;6987;19.472;-99.276;2023-08-31T08:49:09;9.50;;;8.60;;
13832;SDS011;6987;19.472;-99.276;2023-08-31T08:51:39;9.00;;;8.18;;
13832;SDS011;6987;19.472;-99.276;2023-08-31T08:54:12;9.02;;;7.85;;
13832;SDS011;6987;19.472;-99.276;2023-08-31T08:56:41;8.43;;;7.72;;
13832;SDS011;6987;19.472;-99.276;2023-08-31T08:59:11;9.10;;;8.30;;
13832;SDS011;6987;19.472;-99.276;2023-08-31T09:06:53;7.05;;;6.45;;
13832;SDS011;6987;19.472;-99.276;2023-08-31T09:09:23;9.85;;;8.90;;
13832;SDS011;6987;19.472;-99.276;2023-08-31T09:11:52;11.75;;;9.30;;
13832;SDS011;6987;19.472;-99.276;2023-08-31T09:14:22;9.68;;;8.68;;
13832;SDS011;6987;19.472;-99.276;2023-08-31T09:16:51;14.43;;;10.95;;
13832;SDS011;6987;19.472;-99.276;2023-08-31T09:19:21;11.88;;;9.95;;
13832;SDS011;6987;19.472;-99.276;2023-08-31T09:21:55;9.40;;;8.38;;
13832;SDS011;6987;19.472;-99.276;2023-08-31T09:24:25;9.30;;;8.40;;
13832;SDS011;6987;19.472;-99.276;2023-08-31T09:26:56;8.48;;;7.85;;
13832;SDS011;6987;19.472;-99.276;2023-08-31T09:29:26;8.68;;;7.93;;
13832;SDS011;6987;19.472;-99.276;2023-08-31T09:31:56;8.95;;;8.10;;
13832;SDS011;6987;19.472;-99.276;2023-08-31T09:34:32;8.75;;;7.85;;
13832;SDS011;6987;19.472;-99.276;2023-08-31T09:37:07;9.50;;;8.50;;
13832;SDS011;6987;19.472;-99.276;2023-08-31T09:39:37;8.82;;;7.93;;
13832;SDS011;6987;19.472;-99.276;2023-08-31T09:42:07;8.98;;;8.27;;
13832;SDS011;6987;19.472;-99.276;2023-08-31T09:44:39;8.95;;;8.07;;
13832;SDS011;6987;19.472;-99.276;2023-08-31T09:47:11;10.30;;;8.60;;
13832;SDS011;6987;19.472;-99.276;2023-08-31T09:49:42;9.30;;;8.50;;
13832;SDS011;6987;19.472;-99.276;2023-08-31T09:52:15;9.27;;;8.35;;
13832;SDS011;6987;19.472;-99.276;2023-08-31T09:54:46;9.05;;;8.20;;
13832;SDS011;6987;19.472;-99.276;2023-08-31T09:57:18;9.00;;;8.15;;
13832;SDS011;6987;19.472;-99.276;2023-08-31T09:59:49;10.35;;;7.03;;
13832;SDS011;6987;19.472;-99.276;2023-08-31T10:02:19;8.65;;;7.82;;
13832;SDS011;6987;19.472;-99.276;2023-08-31T10:04:48;9.63;;;7.53;;
13832;SDS011;6987;19.472;-99.276;2023-08-31T10:07:20;8.40;;;7.68;;
13832;SDS011;6987;19.472;-99.276;2023-08-31T10:09:50;9.30;;;8.55;;
13832;SDS011;6987;19.472;-99.276;2023-08-31T10:12:21;9.35;;;8.55;;
13832;SDS011;6987;19.472;-99.276;2023-08-31T10:14:51;8.93;;;8.15;;
13832;SDS011;6987;19.472;-99.276;2023-08-31T10:17:22;8.30;;;7.70;;
13832;SDS011;6987;19.472;-99.276;2023-08-31T10:19:52;9.45;;;8.27;;
13832;SDS011;6987;19.472;-99.276;2023-08-31T10:22:26;8.93;;;8.10;;
13832;SDS011;6987;19.472;-99.276;2023-08-31T10:24:59;8.98;;;8.18;;
13832;SDS011;6987;19.472;-99.276;2023-08-31T10:27:35;9.18;;;8.38;;
13832;SDS011;6987;19.472;-99.276;2023-08-31T10:35:51;9.63;;;8.77;;
13832;SDS011;6987;19.472;-99.276;2023-08-31T10:38:28;9.88;;;8.52;;
13832;SDS011;6987;19.472;-99.276;2023-08-31T10:41:01;10.00;;;8.93;;
13832;SDS011;6987;19.472;-99.276;2023-08-31T10:43:47;8.50;;;7.78;;
13832;SDS011;6987;19.472;-99.276;2023-08-31T10:46:19;9.20;;;8.27;;
13832;SDS011;6987;19.472;-99.276;2023-08-31T10:48:55;9.45;;;8.57;;
13832;SDS011;6987;19.472;-99.276;2023-08-31T10:51:26;11.00;;;9.07;;
13832;SDS011;6987;19.472;-99.276;2023-08-31T10:54:07;9.60;;;8.80;;
13832;SDS011;6987;19.472;-99.276;2023-08-31T10:56:55;9.85;;;8.95;;
13832;SDS011;6987;19.472;-99.276;2023-08-31T10:59:43;9.63;;;8.73;;
13832;SDS011;6987;19.472;-99.276;2023-08-31T11:02:29;11.63;;;9.25;;
13832;SDS011;6987;19.472;-99.276;2023-08-31T11:05:01;9.75;;;8.85;;
13832;SDS011;6987;19.472;-99.276;2023-08-31T11:07:34;10.10;;;9.20;;
13832;SDS011;6987;19.472;-99.276;2023-08-31T11:10:14;10.07;;;8.45;;
13832;SDS011;6987;19.472;-99.276;2023-08-31T11:12:45;12.18;;;9.35;;
13832;SDS011;6987;19.472;-99.276;2023-08-31T11:15:16;9.75;;;8.77;;
13832;SDS011;6987;19.472;-99.276;2023-08-31T11:17:46;9.68;;;8.70;;
13832;SDS011;6987;19.472;-99.276;2023-08-31T11:20:18;10.30;;;9.23;;
13832;SDS011;6987;19.472;-99.276;2023-08-31T11:22:48;11.05;;;9.98;;
13832;SDS011;6987;19.472;-99.276;2023-08-31T11:25:21;11.18;;;10.02;;
13832;SDS011;6987;19.472;-99.276;2023-08-31T11:27:54;11.52;;;10.18;;
13832;SDS011;6987;19.472;-99.276;2023-08-31T11:30:25;11.10;;;9.38;;
13832;SDS011;6987;19.472;-99.276;2023-08-31T11:32:58;10.55;;;9.45;;
13832;SDS011;6987;19.472;-99.276;2023-08-31T11:35:31;11.50;;;10.10;;
13832;SDS011;6987;19.472;-99.276;2023-08-31T11:38:02;12.80;;;10.45;;
13832;SDS011;6987;19.472;-99.276;2023-08-31T11:40:34;10.90;;;9.80;;
13832;SDS011;6987;19.472;-99.276;2023-08-31T11:43:04;10.85;;;9.77;;
13832;SDS011;6987;19.472;-99.276;2023-08-31T11:45:33;10.13;;;9.25;;
13832;SDS011;6987;19.472;-99.276;2023-08-31T11:48:04;10.80;;;9.75;;
13832;SDS011;6987;19.472;-99.276;2023-08-31T11:50:34;10.52;;;9.48;;
13832;SDS011;6987;19.472;-99.276;2023-08-31T11:53:05;11.80;;;10.60;;
13832;SDS011;6987;19.472;-99.276;2023-08-31T11:55:36;10.63;;;9.65;;
13832;SDS011;6987;19.472;-99.276;2023-08-31T11:58:16;13.27;;;10.63;;
13832;SDS011;6987;19.472;-99.276;2023-08-31T12:00:54;12.88;;;10.30;;
13832;SDS011;6987;19.472;-99.276;2023-08-31T12:03:24;13.13;;;10.80;;
13832;SDS011;6987;19.472;-99.276;2023-08-31T12:05:54;12.25;;;10.32;;
13832;SDS011;6987;19.472;-99.276;2023-08-31T12:08:24;11.95;;;10.52;;
13832;SDS011;6987;19.472;-99.276;2023-08-31T12:10:55;10.52;;;9.40;;
13832;SDS011;6987;19.472;-99.276;2023-08-31T12:13:28;12.02;;;9.65;;
13832;SDS011;6987;19.472;-99.276;2023-08-31T12:15:58;10.98;;;9.90;;
13832;SDS011;6987;19.472;-99.276;2023-08-31T12:18:30;11.80;;;10.40;;
13832;SDS011;6987;19.472;-99.276;2023-08-31T12:20:59;12.63;;;10.60;;
13832;SDS011;6987;19.472;-99.276;2023-08-31T12:23:30;11.98;;;10.77;;
13832;SDS011;6987;19.472;-99.276;2023-08-31T12:26:01;12.93;;;11.20;;
13832;SDS011;6987;19.472;-99.276;2023-08-31T12:28:31;13.63;;;11.30;;
13832;SDS011;6987;19.472;-99.276;2023-08-31T12:31:01;11.07;;;10.07;;
13832;SDS011;6987;19.472;-99.276;2023-08-31T12:33:30;13.45;;;11.30;;
13832;SDS011;6987;19.472;-99.276;2023-08-31T12:36:00;11.82;;;10.50;;
13832;SDS011;6987;19.472;-99.276;2023-08-31T12:38:29;12.20;;;11.00;;
13832;SDS011;6987;19.472;-99.276;2023-08-31T12:40:59;11.93;;;10.65;;
13832;SDS011;6987;19.472;-99.276;2023-08-31T12:43:30;14.80;;;11.18;;
13832;SDS011;6987;19.472;-99.276;2023-08-31T12:45:59;12.70;;;11.05;;
13832;SDS011;6987;19.472;-99.276;2023-08-31T12:48:30;11.55;;;10.40;;
13832;SDS011;6987;19.472;-99.276;2023-08-31T12:51:02;12.30;;;10.95;;
13832;SDS011;6987;19.472;-99.276;2023-08-31T12:53:32;14.25;;;11.27;;
13832;SDS011;6987;19.472;-99.276;2023-08-31T12:56:09;11.40;;;10.35;;
13832;SDS011;6987;19.472;-99.276;2023-08-31T12:58:38;11.27;;;9.95;;
13832;SDS011;6987;19.472;-99.276;2023-08-31T13:01:07;18.30;;;11.05;;
13832;SDS011;6987;19.472;-99.276;2023-08-31T13:03:40;11.75;;;10.68;;
13832;SDS011;6987;19.472;-99.276;2023-08-31T13:06:09;14.55;;;11.55;;
13832;SDS011;6987;19.472;-99.276;2023-08-31T13:08:39;13.60;;;11.07;;
13832;SDS011;6987;19.472;-99.276;2023-08-31T13:11:10;14.00;;;10.57;;
13832;SDS011;6987;19.472;-99.276;2023-08-31T13:13:40;12.10;;;10.27;;
13832;SDS011;6987;19.472;-99.276;2023-08-31T13:16:10;18.20;;;12.20;;
13832;SDS011;6987;19.472;-99.276;2023-08-31T13:18:39;17.20;;;12.63;;
13832;SDS011;6987;19.472;-99.276;2023-08-31T13:21:09;14.45;;;12.73;;
13832;SDS011;6987;19.472;-99.276;2023-08-31T13:23:38;16.60;;;12.23;;
13832;SDS011;6987;19.472;-99.276;2023-08-31T13:26:12;18.75;;;12.15;;
13832;SDS011;6987;19.472;-99.276;2023-08-31T13:28:41;13.07;;;11.77;;
13832;SDS011;6987;19.472;-99.276;2023-08-31T13:34:00;15.80;;;12.20;;
13832;SDS011;6987;19.472;-99.276;2023-08-31T13:36:31;15.02;;;12.32;;
13832;SDS011;6987;19.472;-99.276;2023-08-31T13:39:01;12.52;;;11.10;;
13832;SDS011;6987;19.472;-99.276;2023-08-31T13:41:34;14.45;;;11.55;;
13832;SDS011;6987;19.472;-99.276;2023-08-31T13:44:04;19.00;;;11.05;;
13832;SDS011;6987;19.472;-99.276;2023-08-31T13:46:33;18.15;;;11.50;;
13832;SDS011;6987;19.472;-99.276;2023-08-31T13:49:03;18.08;;;12.18;;
13832;SDS011;6987;19.472;-99.276;2023-08-31T13:51:32;16.73;;;11.50;;
13832;SDS011;6987;19.472;-99.276;2023-08-31T14:01:49;13.32;;;11.57;;
13832;SDS011;6987;19.472;-99.276;2023-08-31T14:04:18;13.35;;;11.18;;
13832;SDS011;6987;19.472;-99.276;2023-08-31T14:06:48;13.15;;;11.25;;
13832;SDS011;6987;19.472;-99.276;2023-08-31T14:09:17;14.43;;;11.73;;
13832;SDS011;6987;19.472;-99.276;2023-08-31T14:11:47;11.77;;;10.45;;
13832;SDS011;6987;19.472;-99.276;2023-08-31T14:14:16;17.48;;;11.23;;
13832;SDS011;6987;19.472;-99.276;2023-08-31T14:16:45;13.70;;;11.00;;
13832;SDS011;6987;19.472;-99.276;2023-08-31T14:19:16;13.13;;;11.05;;
13832;SDS011;6987;19.472;-99.276;2023-08-31T14:21:45;16.35;;;12.27;;
13832;SDS011;6987;19.472;-99.276;2023-08-31T14:24:18;12.45;;;10.77;;
13832;SDS011;6987;19.472;-99.276;2023-08-31T14:26:48;13.18;;;11.15;;
13832;SDS011;6987;19.472;-99.276;2023-08-31T14:29:17;14.15;;;11.43;;
13832;SDS011;6987;19.472;-99.276;2023-08-31T14:31:46;13.00;;;11.70;;
13832;SDS011;6987;19.472;-99.276;2023-08-31T14:34:17;13.02;;;11.60;;
13832;SDS011;6987;19.472;-99.276;2023-08-31T14:36:46;16.45;;;12.15;;
13832;SDS011;6987;19.472;-99.276;2023-08-31T14:39:16;14.43;;;12.13;;
13832;SDS011;6987;19.472;-99.276;2023-08-31T14:41:45;14.40;;;12.90;;
13832;SDS011;6987;19.472;-99.276;2023-08-31T14:44:14;13.82;;;12.45;;
13832;SDS011;6987;19.472;-99.276;2023-08-31T14:46:44;14.27;;;12.52;;
13832;SDS011;6987;19.472;-99.276;2023-08-31T14:49:13;15.10;;;13.10;;
13832;SDS011;6987;19.472;-99.276;2023-08-31T14:51:44;14.23;;;12.80;;
13832;SDS011;6987;19.472;-99.276;2023-08-31T14:54:13;16.48;;;12.88;;
13832;SDS011;6987;19.472;-99.276;2023-08-31T14:56:43;15.20;;;13.20;;
13832;SDS011;6987;19.472;-99.276;2023-08-31T14:59:12;15.38;;;13.75;;
13832;SDS011;6987;19.472;-99.276;2023-08-31T15:01:41;15.65;;;13.98;;
13832;SDS011;6987;19.472;-99.276;2023-08-31T15:04:11;20.60;;;15.52;;